Molly Patricia — WDH9743 — position and weather

sailwx.info

Track history (hours):
 
Tides and Currents Weather Stations Pressure Air Temp Water Temp Dewpoint Dewpoint Depression Visibility Wind Speed Wind Dir Waves Ship Positions

Molly Patricia

Owner: MOLLY PATRICIA, Houston, TX. More information available from US FCC via Universal Licensing System and Coast Guard Vessel Documentation Center.

Last reported at 2017-Nov-07 19:53 UTC. Time now 2017-Nov-20 21:02 UTC.
Position N 29°30' W 094°52'.
Warning: this ship's position is 13 days out of date.

Length 29 m; draft 3 m.

Type: Towing. MMSI: 367671160.

Date/timePositionNaut miles runAvg speedWind from/ knotsBaromVisibWave heightAir tempDewpointWater temp
2017-Nov-07 19:53N 29°30' W 094°52'3 7.3
2017-Nov-07 19:30N 29°32' W 094°54'4 7.1
2017-Nov-07 19:00N 29°35' W 094°56'3 6.9
2017-Nov-07 18:30N 29°38' W 094°58'4 7.6
2017-Nov-07 18:00N 29°41' W 094°59'4 7.1
2017-Nov-07 17:30N 29°44' W 095°02'4 6.3
2017-Nov-07 16:52N 29°46' W 095°06'0 0.0
2017-Nov-06 22:15N 29°46' W 095°06'0 0.0
2017-Nov-06 20:12N 29°46' W 095°06'  
2017-Nov-04 02:47N 29°46' W 095°06'0 0.1
2017-Nov-04 00:08N 29°46' W 095°06'1 4.8
2017-Nov-03 23:58N 29°46' W 095°05'1 0.3
2017-Nov-03 21:40N 29°47' W 095°05'0 0.0
2017-Nov-03 21:02N 29°47' W 095°05'0 0.0
2017-Nov-03 20:59N 29°47' W 095°05'0 0.0
2017-Nov-03 20:29N 29°47' W 095°05'0 0.2
2017-Nov-03 20:00N 29°47' W 095°05'2 2.8
2017-Nov-03 19:10N 29°46' W 095°07'0 0.4
2017-Nov-03 18:59N 29°46' W 095°07'0 0.1
2017-Nov-03 17:47N 29°46' W 095°07'0 0.0
2017-Nov-03 17:25N 29°46' W 095°07'0 0.0
2017-Nov-03 16:43N 29°46' W 095°07'0 0.0
2017-Nov-03 16:30N 29°46' W 095°07'0 0.0
2017-Nov-03 15:59N 29°46' W 095°07'0 0.0
2017-Nov-03 15:29N 29°46' W 095°07'0 0.0
2017-Nov-03 14:49N 29°46' W 095°07'0 0.0
2017-Nov-03 14:18N 29°46' W 095°07'0 0.0
2017-Nov-03 13:59N 29°46' W 095°07'0 0.0
2017-Nov-03 13:19N 29°46' W 095°07'0 0.0
2017-Nov-03 12:57N 29°46' W 095°07'0 0.0
2017-Nov-03 12:26N 29°46' W 095°07'0 0.0
2017-Nov-03 11:59N 29°46' W 095°07'0 0.0
2017-Nov-03 11:30N 29°46' W 095°07'0 0.0
2017-Nov-03 11:00N 29°46' W 095°07'0 0.0
2017-Nov-03 10:30N 29°46' W 095°07'0 0.0
2017-Nov-03 10:00N 29°46' W 095°07'0 0.0
2017-Nov-03 09:28N 29°46' W 095°07'0 0.0
2017-Nov-03 09:00N 29°46' W 095°07'0 0.0
2017-Nov-03 08:30N 29°46' W 095°07'0 0.1
2017-Nov-03 08:00N 29°46' W 095°07'0 0.0
2017-Nov-03 07:28N 29°46' W 095°07'0 0.0
2017-Nov-03 07:00N 29°46' W 095°07'0 0.0
2017-Nov-03 06:29N 29°46' W 095°07'0 0.0
2017-Nov-03 05:59N 29°46' W 095°07'0 0.0
2017-Nov-03 05:30N 29°46' W 095°07'0 0.0
2017-Nov-03 05:00N 29°46' W 095°07'0 0.0
2017-Nov-03 04:30N 29°46' W 095°07'0 0.0
2017-Nov-03 04:00N 29°46' W 095°07'0 0.0
2017-Nov-03 03:30N 29°46' W 095°07'0 0.0
2017-Nov-03 03:01N 29°46' W 095°07'0 0.0
2017-Nov-03 02:30N 29°46' W 095°07'0 0.0
2017-Nov-03 01:57N 29°46' W 095°07'0 0.0
2017-Nov-03 01:07N 29°46' W 095°07'0 0.0
2017-Nov-03 00:44N 29°46' W 095°07'0 0.0
2017-Nov-03 00:29N 29°46' W 095°07'0 0.0
2017-Nov-02 23:59N 29°46' W 095°07'0 0.0
2017-Nov-02 23:30N 29°46' W 095°07'0 0.0
2017-Nov-02 22:53N 29°46' W 095°07'0 0.0
2017-Nov-02 20:53N 29°46' W 095°07'0 0.0
2017-Nov-02 20:13N 29°46' W 095°07'0 0.2
2017-Nov-02 19:27N 29°46' W 095°07'0 0.1
2017-Nov-02 18:43N 29°46' W 095°07'1 2.4
2017-Nov-02 18:15N 29°45' W 095°06'1 3.8
2017-Nov-02 18:00N 29°46' W 095°05'1 2.5
2017-Nov-02 17:28N 29°47' W 095°04'0 0.6
2017-Nov-02 16:50N 29°47' W 095°04'1 2.5
2017-Nov-02 16:27N 29°47' W 095°05'1 0.0
2017-Oct-31 23:51N 29°46' W 095°06'0 0.3
2017-Oct-31 23:30N 29°46' W 095°06'2 3.1
2017-Oct-31 23:00N 29°47' W 095°04'0 0.1
2017-Oct-31 19:28N 29°47' W 095°04'1 2.2
2017-Oct-31 18:59N 29°46' W 095°05'2 3.7
2017-Oct-31 18:30N 29°45' W 095°04'2 4.8
2017-Oct-31 18:00N 29°43' W 095°01'2 4.5
2017-Oct-31 17:30N 29°42' W 094°60'3 5.1
2017-Oct-31 17:00N 29°39' W 094°58'3 5.5
2017-Oct-31 16:30N 29°37' W 094°57'3 5.2
2017-Oct-31 16:00N 29°35' W 094°56'2 4.2
2017-Oct-31 15:30N 29°33' W 094°54'3 5.7
2017-Oct-31 15:00N 29°31' W 094°53'4 6.5
2017-Oct-31 14:26N 29°27' W 094°51'69 3.5
2017-Oct-30 18:42N 30°03' W 093°43'1 4.1
2017-Oct-30 18:28N 30°03' W 093°42'1 2.7
2017-Oct-30 18:00N 30°04' W 093°41'1 2.1
2017-Oct-30 17:28N 30°04' W 093°39'2 4.7
2017-Oct-30 17:00N 30°04' W 093°37'2 3.6
2017-Oct-30 16:30N 30°04' W 093°35'2 4.2
2017-Oct-30 16:00N 30°04' W 093°32'2 4.4
2017-Oct-30 15:30N 30°04' W 093°30'2 4.3
2017-Oct-30 15:00N 30°04' W 093°27'4 4.0
2017-Oct-30 14:00N 30°04' W 093°23'2 3.5
2017-Oct-30 13:30N 30°04' W 093°21'2 3.9
2017-Oct-30 13:00N 30°06' W 093°20'3 5.8
2017-Oct-30 12:30N 30°09' W 093°20'3 5.1
2017-Oct-30 12:00N 30°11' W 093°19'1 1.1
2017-Oct-30 11:30N 30°11' W 093°18'0 0.8
2017-Oct-30 11:00N 30°11' W 093°19'0 0.0
2017-Oct-30 10:30N 30°11' W 093°19'0 0.0
2017-Oct-30 10:00N 30°11' W 093°19'0 0.0
2017-Oct-30 09:30N 30°11' W 093°19'0 0.0
2017-Oct-30 09:00N 30°11' W 093°19'0 0.0
2017-Oct-30 08:30N 30°11' W 093°19'0 0.0
2017-Oct-30 08:00N 30°11' W 093°19'0 0.0
2017-Oct-30 07:30N 30°11' W 093°19'0 0.0
2017-Oct-30 07:00N 30°11' W 093°19'0 0.0
2017-Oct-30 06:30N 30°11' W 093°19'0 0.0
2017-Oct-30 06:00N 30°11' W 093°19'0 0.0
2017-Oct-30 05:30N 30°11' W 093°19'0 0.0
2017-Oct-30 05:00N 30°11' W 093°19'0 0.0
2017-Oct-30 04:30N 30°11' W 093°19'0 0.0
2017-Oct-30 04:00N 30°11' W 093°19'0 0.0
2017-Oct-30 03:30N 30°11' W 093°19'0 0.0
2017-Oct-30 03:00N 30°11' W 093°19'0 0.0
2017-Oct-30 02:30N 30°11' W 093°19'0 0.0
2017-Oct-30 02:00N 30°11' W 093°19'0 0.0
2017-Oct-30 01:30N 30°11' W 093°19'0 0.0
2017-Oct-30 01:00N 30°11' W 093°19'0 0.0
2017-Oct-30 00:30N 30°11' W 093°19'0 0.0
2017-Oct-30 00:00N 30°11' W 093°19'0 0.0
2017-Oct-29 23:30N 30°11' W 093°19'0 0.0
2017-Oct-29 23:00N 30°11' W 093°19'0 0.0
2017-Oct-29 22:30N 30°11' W 093°19'0 0.0
2017-Oct-29 22:00N 30°11' W 093°19'0 0.0
2017-Oct-29 21:30N 30°11' W 093°19'0 0.0
2017-Oct-29 21:00N 30°11' W 093°19'0 0.0
2017-Oct-29 20:30N 30°11' W 093°19'0 0.0
2017-Oct-29 20:00N 30°11' W 093°19'0 0.0
2017-Oct-29 19:30N 30°11' W 093°19'0 0.0
2017-Oct-29 19:00N 30°11' W 093°19'0 0.0
2017-Oct-29 18:30N 30°11' W 093°19'0 0.0
2017-Oct-29 18:00N 30°11' W 093°19'0 0.0
2017-Oct-29 17:30N 30°11' W 093°19'0 0.0
2017-Oct-29 17:00N 30°11' W 093°19'0 0.0
2017-Oct-29 16:30N 30°11' W 093°19'0 0.0
2017-Oct-29 16:00N 30°11' W 093°19'0 0.0
2017-Oct-29 15:30N 30°11' W 093°19'0 0.0
2017-Oct-29 15:00N 30°11' W 093°19'0 0.0
2017-Oct-29 14:30N 30°11' W 093°19'0 0.0
2017-Oct-29 14:00N 30°11' W 093°19'0 0.0
2017-Oct-29 13:30N 30°11' W 093°19'0 0.0
2017-Oct-29 13:00N 30°11' W 093°19'0 0.0
2017-Oct-29 12:30N 30°11' W 093°19'0 0.0
2017-Oct-29 12:00N 30°11' W 093°19'0 0.0
2017-Oct-29 11:30N 30°11' W 093°19'0 0.0
2017-Oct-29 11:00N 30°11' W 093°19'0 0.0
2017-Oct-29 10:30N 30°11' W 093°19'0 0.0
2017-Oct-29 10:00N 30°11' W 093°19'0 0.0
2017-Oct-29 09:30N 30°11' W 093°19'0 0.0
2017-Oct-29 09:00N 30°11' W 093°19'0 0.0
2017-Oct-29 08:30N 30°11' W 093°19'0 0.0
2017-Oct-29 08:00N 30°11' W 093°19'0 0.0
2017-Oct-29 07:30N 30°11' W 093°19'0 0.0
2017-Oct-29 07:00N 30°11' W 093°19'0 0.0
2017-Oct-29 06:30N 30°11' W 093°19'0 0.0
2017-Oct-29 06:00N 30°11' W 093°19'0 0.0
2017-Oct-29 05:30N 30°11' W 093°19'0 0.0
2017-Oct-29 05:00N 30°11' W 093°19'0 0.0
2017-Oct-29 04:30N 30°11' W 093°19'0 0.0
2017-Oct-29 04:00N 30°11' W 093°19'  
Track history (hours):
 
Tides and Currents Weather Stations Pressure Air Temp Water Temp Dewpoint Dewpoint Depression Visibility Wind Speed Wind Dir Waves Ship Positions

Molly Patricia

Owner: MOLLY PATRICIA, Houston, TX. More information available from US FCC via Universal Licensing System and Coast Guard Vessel Documentation Center.

Last reported at 2017-Nov-07 19:53 UTC. Time now 2017-Nov-20 21:02 UTC.
Position N 29°30' W 094°52'.
Warning: this ship's position is 13 days out of date.

Length 29 m; draft 3 m.

Type: Towing. MMSI: 367671160.

Date/timePositionNaut miles runAvg speedWind from/ knotsBaromVisibWave heightAir tempDewpointWater temp
2017-Nov-07 19:53N 29°30' W 094°52'3 7.3
2017-Nov-07 19:30N 29°32' W 094°54'4 7.1
2017-Nov-07 19:00N 29°35' W 094°56'3 6.9
2017-Nov-07 18:30N 29°38' W 094°58'4 7.6
2017-Nov-07 18:00N 29°41' W 094°59'4 7.1
2017-Nov-07 17:30N 29°44' W 095°02'4 6.3
2017-Nov-07 16:52N 29°46' W 095°06'0 0.0
2017-Nov-06 22:15N 29°46' W 095°06'0 0.0
2017-Nov-06 20:12N 29°46' W 095°06'  
2017-Nov-04 02:47N 29°46' W 095°06'0 0.1
2017-Nov-04 00:08N 29°46' W 095°06'1 4.8
2017-Nov-03 23:58N 29°46' W 095°05'1 0.3
2017-Nov-03 21:40N 29°47' W 095°05'0 0.0
2017-Nov-03 21:02N 29°47' W 095°05'0 0.0
2017-Nov-03 20:59N 29°47' W 095°05'0 0.0
2017-Nov-03 20:29N 29°47' W 095°05'0 0.2
2017-Nov-03 20:00N 29°47' W 095°05'2 2.8
2017-Nov-03 19:10N 29°46' W 095°07'0 0.4
2017-Nov-03 18:59N 29°46' W 095°07'0 0.1
2017-Nov-03 17:47N 29°46' W 095°07'0 0.0
2017-Nov-03 17:25N 29°46' W 095°07'0 0.0
2017-Nov-03 16:43N 29°46' W 095°07'0 0.0
2017-Nov-03 16:30N 29°46' W 095°07'0 0.0
2017-Nov-03 15:59N 29°46' W 095°07'0 0.0
2017-Nov-03 15:29N 29°46' W 095°07'0 0.0
2017-Nov-03 14:49N 29°46' W 095°07'0 0.0
2017-Nov-03 14:18N 29°46' W 095°07'0 0.0
2017-Nov-03 13:59N 29°46' W 095°07'0 0.0
2017-Nov-03 13:19N 29°46' W 095°07'0 0.0
2017-Nov-03 12:57N 29°46' W 095°07'0 0.0
2017-Nov-03 12:26N 29°46' W 095°07'0 0.0
2017-Nov-03 11:59N 29°46' W 095°07'0 0.0
2017-Nov-03 11:30N 29°46' W 095°07'0 0.0
2017-Nov-03 11:00N 29°46' W 095°07'0 0.0
2017-Nov-03 10:30N 29°46' W 095°07'0 0.0
2017-Nov-03 10:00N 29°46' W 095°07'0 0.0
2017-Nov-03 09:28N 29°46' W 095°07'0 0.0
2017-Nov-03 09:00N 29°46' W 095°07'0 0.0
2017-Nov-03 08:30N 29°46' W 095°07'0 0.1
2017-Nov-03 08:00N 29°46' W 095°07'0 0.0
2017-Nov-03 07:28N 29°46' W 095°07'0 0.0
2017-Nov-03 07:00N 29°46' W 095°07'0 0.0
2017-Nov-03 06:29N 29°46' W 095°07'0 0.0
2017-Nov-03 05:59N 29°46' W 095°07'0 0.0
2017-Nov-03 05:30N 29°46' W 095°07'0 0.0
2017-Nov-03 05:00N 29°46' W 095°07'0 0.0
2017-Nov-03 04:30N 29°46' W 095°07'0 0.0
2017-Nov-03 04:00N 29°46' W 095°07'0 0.0
2017-Nov-03 03:30N 29°46' W 095°07'0 0.0
2017-Nov-03 03:01N 29°46' W 095°07'0 0.0
2017-Nov-03 02:30N 29°46' W 095°07'0 0.0
2017-Nov-03 01:57N 29°46' W 095°07'0 0.0
2017-Nov-03 01:07N 29°46' W 095°07'0 0.0
2017-Nov-03 00:44N 29°46' W 095°07'0 0.0
2017-Nov-03 00:29N 29°46' W 095°07'0 0.0
2017-Nov-02 23:59N 29°46' W 095°07'0 0.0
2017-Nov-02 23:30N 29°46' W 095°07'0 0.0
2017-Nov-02 22:53N 29°46' W 095°07'0 0.0
2017-Nov-02 20:53N 29°46' W 095°07'0 0.0
2017-Nov-02 20:13N 29°46' W 095°07'0 0.2
2017-Nov-02 19:27N 29°46' W 095°07'0 0.1
2017-Nov-02 18:43N 29°46' W 095°07'1 2.4
2017-Nov-02 18:15N 29°45' W 095°06'1 3.8
2017-Nov-02 18:00N 29°46' W 095°05'1 2.5
2017-Nov-02 17:28N 29°47' W 095°04'0 0.6
2017-Nov-02 16:50N 29°47' W 095°04'1 2.5
2017-Nov-02 16:27N 29°47' W 095°05'1 0.0
2017-Oct-31 23:51N 29°46' W 095°06'0 0.3
2017-Oct-31 23:30N 29°46' W 095°06'2 3.1
2017-Oct-31 23:00N 29°47' W 095°04'0 0.1
2017-Oct-31 19:28N 29°47' W 095°04'1 2.2
2017-Oct-31 18:59N 29°46' W 095°05'2 3.7
2017-Oct-31 18:30N 29°45' W 095°04'2 4.8
2017-Oct-31 18:00N 29°43' W 095°01'2 4.5
2017-Oct-31 17:30N 29°42' W 094°60'3 5.1
2017-Oct-31 17:00N 29°39' W 094°58'3 5.5
2017-Oct-31 16:30N 29°37' W 094°57'3 5.2
2017-Oct-31 16:00N 29°35' W 094°56'2 4.2
2017-Oct-31 15:30N 29°33' W 094°54'3 5.7
2017-Oct-31 15:00N 29°31' W 094°53'4 6.5
2017-Oct-31 14:26N 29°27' W 094°51'69 3.5
2017-Oct-30 18:42N 30°03' W 093°43'1 4.1
2017-Oct-30 18:28N 30°03' W 093°42'1 2.7
2017-Oct-30 18:00N 30°04' W 093°41'1 2.1
2017-Oct-30 17:28N 30°04' W 093°39'2 4.7
2017-Oct-30 17:00N 30°04' W 093°37'2 3.6
2017-Oct-30 16:30N 30°04' W 093°35'2 4.2
2017-Oct-30 16:00N 30°04' W 093°32'2 4.4
2017-Oct-30 15:30N 30°04' W 093°30'2 4.3
2017-Oct-30 15:00N 30°04' W 093°27'4 4.0
2017-Oct-30 14:00N 30°04' W 093°23'2 3.5
2017-Oct-30 13:30N 30°04' W 093°21'2 3.9
2017-Oct-30 13:00N 30°06' W 093°20'3 5.8
2017-Oct-30 12:30N 30°09' W 093°20'3 5.1
2017-Oct-30 12:00N 30°11' W 093°19'1 1.1
2017-Oct-30 11:30N 30°11' W 093°18'0 0.8
2017-Oct-30 11:00N 30°11' W 093°19'0 0.0
2017-Oct-30 10:30N 30°11' W 093°19'0 0.0
2017-Oct-30 10:00N 30°11' W 093°19'0 0.0
2017-Oct-30 09:30N 30°11' W 093°19'0 0.0
2017-Oct-30 09:00N 30°11' W 093°19'0 0.0
2017-Oct-30 08:30N 30°11' W 093°19'0 0.0
2017-Oct-30 08:00N 30°11' W 093°19'0 0.0
2017-Oct-30 07:30N 30°11' W 093°19'0 0.0
2017-Oct-30 07:00N 30°11' W 093°19'0 0.0
2017-Oct-30 06:30N 30°11' W 093°19'0 0.0
2017-Oct-30 06:00N 30°11' W 093°19'0 0.0
2017-Oct-30 05:30N 30°11' W 093°19'0 0.0
2017-Oct-30 05:00N 30°11' W 093°19'0 0.0
2017-Oct-30 04:30N 30°11' W 093°19'0 0.0
2017-Oct-30 04:00N 30°11' W 093°19'0 0.0
2017-Oct-30 03:30N 30°11' W 093°19'0 0.0
2017-Oct-30 03:00N 30°11' W 093°19'0 0.0
2017-Oct-30 02:30N 30°11' W 093°19'0 0.0
2017-Oct-30 02:00N 30°11' W 093°19'0 0.0
2017-Oct-30 01:30N 30°11' W 093°19'0 0.0
2017-Oct-30 01:00N 30°11' W 093°19'0 0.0
2017-Oct-30 00:30N 30°11' W 093°19'0 0.0
2017-Oct-30 00:00N 30°11' W 093°19'0 0.0
2017-Oct-29 23:30N 30°11' W 093°19'0 0.0
2017-Oct-29 23:00N 30°11' W 093°19'0 0.0
2017-Oct-29 22:30N 30°11' W 093°19'0 0.0
2017-Oct-29 22:00N 30°11' W 093°19'0 0.0
2017-Oct-29 21:30N 30°11' W 093°19'0 0.0
2017-Oct-29 21:00N 30°11' W 093°19'0 0.0
2017-Oct-29 20:30N 30°11' W 093°19'0 0.0
2017-Oct-29 20:00N 30°11' W 093°19'0 0.0
2017-Oct-29 19:30N 30°11' W 093°19'0 0.0
2017-Oct-29 19:00N 30°11' W 093°19'0 0.0
2017-Oct-29 18:30N 30°11' W 093°19'0 0.0
2017-Oct-29 18:00N 30°11' W 093°19'0 0.0
2017-Oct-29 17:30N 30°11' W 093°19'0 0.0
2017-Oct-29 17:00N 30°11' W 093°19'0 0.0
2017-Oct-29 16:30N 30°11' W 093°19'0 0.0
2017-Oct-29 16:00N 30°11' W 093°19'0 0.0
2017-Oct-29 15:30N 30°11' W 093°19'0 0.0
2017-Oct-29 15:00N 30°11' W 093°19'0 0.0
2017-Oct-29 14:30N 30°11' W 093°19'0 0.0
2017-Oct-29 14:00N 30°11' W 093°19'0 0.0
2017-Oct-29 13:30N 30°11' W 093°19'0 0.0
2017-Oct-29 13:00N 30°11' W 093°19'0 0.0
2017-Oct-29 12:30N 30°11' W 093°19'0 0.0
2017-Oct-29 12:00N 30°11' W 093°19'0 0.0
2017-Oct-29 11:30N 30°11' W 093°19'0 0.0
2017-Oct-29 11:00N 30°11' W 093°19'0 0.0
2017-Oct-29 10:30N 30°11' W 093°19'0 0.0
2017-Oct-29 10:00N 30°11' W 093°19'0 0.0
2017-Oct-29 09:30N 30°11' W 093°19'0 0.0
2017-Oct-29 09:00N 30°11' W 093°19'0 0.0
2017-Oct-29 08:30N 30°11' W 093°19'0 0.0
2017-Oct-29 08:00N 30°11' W 093°19'0 0.0
2017-Oct-29 07:30N 30°11' W 093°19'0 0.0
2017-Oct-29 07:00N 30°11' W 093°19'0 0.0
2017-Oct-29 06:30N 30°11' W 093°19'0 0.0
2017-Oct-29 06:00N 30°11' W 093°19'0 0.0
2017-Oct-29 05:30N 30°11' W 093°19'0 0.0
2017-Oct-29 05:00N 30°11' W 093°19'0 0.0
2017-Oct-29 04:30N 30°11' W 093°19'0 0.0
2017-Oct-29 04:00N 30°11' W 093°19'  

Dump ship's entire track history